sensor_id;sensor_type;location;lat;lon;timestamp;temperature;humidity
21149;DHT22;10732;51.472;6.466;2023-04-07T00:01:19;7.80;99.90
21149;DHT22;10732;51.472;6.466;2023-04-07T00:03:46;7.80;99.90
21149;DHT22;10732;51.472;6.466;2023-04-07T00:06:11;7.90;99.90
21149;DHT22;10732;51.472;6.466;2023-04-07T00:08:37;7.90;99.90
21149;DHT22;10732;51.472;6.466;2023-04-07T00:11:03;7.90;99.90
21149;DHT22;10732;51.472;6.466;2023-04-07T00:13:28;8.00;99.90
21149;DHT22;10732;51.472;6.466;2023-04-07T00:15:54;8.00;99.90
21149;DHT22;10732;51.472;6.466;2023-04-07T00:18:19;8.00;99.90
21149;DHT22;10732;51.472;6.466;2023-04-07T00:20:45;8.00;99.90
21149;DHT22;10732;51.472;6.466;2023-04-07T00:23:11;8.10;99.90
21149;DHT22;10732;51.472;6.466;2023-04-07T00:25:36;8.10;99.90
21149;DHT22;10732;51.472;6.466;2023-04-07T00:28:02;8.10;99.90
21149;DHT22;10732;51.472;6.466;2023-04-07T00:30:27;8.20;99.90
21149;DHT22;10732;51.472;6.466;2023-04-07T00:32:53;8.20;99.90
21149;DHT22;10732;51.472;6.466;2023-04-07T00:35:19;8.20;99.90
21149;DHT22;10732;51.472;6.466;2023-04-07T00:37:44;8.20;99.90
21149;DHT22;10732;51.472;6.466;2023-04-07T00:40:10;8.20;99.90
21149;DHT22;10732;51.472;6.466;2023-04-07T00:42:36;8.30;99.90
21149;DHT22;10732;51.472;6.466;2023-04-07T00:45:01;8.30;99.90
21149;DHT22;10732;51.472;6.466;2023-04-07T00:47:27;8.30;99.90
21149;DHT22;10732;51.472;6.466;2023-04-07T00:49:52;8.30;99.90
21149;DHT22;10732;51.472;6.466;2023-04-07T00:52:18;8.30;99.90
21149;DHT22;10732;51.472;6.466;2023-04-07T00:54:53;8.30;99.90
21149;DHT22;10732;51.472;6.466;2023-04-07T00:57:18;8.30;99.90
21149;DHT22;10732;51.472;6.466;2023-04-07T00:59:44;8.40;99.90
21149;DHT22;10732;51.472;6.466;2023-04-07T01:02:15;8.30;99.90
21149;DHT22;10732;51.472;6.466;2023-04-07T01:05:08;8.40;99.90
21149;DHT22;10732;51.472;6.466;2023-04-07T01:07:45;8.40;99.90
21149;DHT22;10732;51.472;6.466;2023-04-07T01:10:26;8.30;99.90
21149;DHT22;10732;51.472;6.466;2023-04-07T01:13:00;8.30;99.90
21149;DHT22;10732;51.472;6.466;2023-04-07T01:15:29;8.30;99.90
21149;DHT22;10732;51.472;6.466;2023-04-07T01:18:00;8.30;99.90
21149;DHT22;10732;51.472;6.466;2023-04-07T01:20:29;8.30;99.90
21149;DHT22;10732;51.472;6.466;2023-04-07T01:22:57;8.30;99.90
21149;DHT22;10732;51.472;6.466;2023-04-07T01:28:53;8.30;99.90
21149;DHT22;10732;51.472;6.466;2023-04-07T01:31:22;8.30;99.90
21149;DHT22;10732;51.472;6.466;2023-04-07T01:33:50;8.20;99.90
21149;DHT22;10732;51.472;6.466;2023-04-07T01:36:17;8.20;99.90
21149;DHT22;10732;51.472;6.466;2023-04-07T01:38:44;8.20;99.90
21149;DHT22;10732;51.472;6.466;2023-04-07T01:41:10;8.20;99.90
21149;DHT22;10732;51.472;6.466;2023-04-07T01:43:40;8.20;99.90
21149;DHT22;10732;51.472;6.466;2023-04-07T01:46:06;8.20;99.90
21149;DHT22;10732;51.472;6.466;2023-04-07T01:48:32;8.20;99.90
21149;DHT22;10732;51.472;6.466;2023-04-07T01:50:59;8.10;99.90
21149;DHT22;10732;51.472;6.466;2023-04-07T01:53:25;8.10;99.90
21149;DHT22;10732;51.472;6.466;2023-04-07T01:55:52;8.10;99.90
21149;DHT22;10732;51.472;6.466;2023-04-07T01:58:18;8.10;99.90
21149;DHT22;10732;51.472;6.466;2023-04-07T02:00:44;8.00;99.90
21149;DHT22;10732;51.472;6.466;2023-04-07T02:03:14;8.10;99.90
21149;DHT22;10732;51.472;6.466;2023-04-07T02:05:46;8.10;99.90
21149;DHT22;10732;51.472;6.466;2023-04-07T02:08:15;8.10;99.90
21149;DHT22;10732;51.472;6.466;2023-04-07T02:10:42;8.10;99.90
21149;DHT22;10732;51.472;6.466;2023-04-07T02:13:14;8.10;99.90
21149;DHT22;10732;51.472;6.466;2023-04-07T02:15:41;8.00;99.90
21149;DHT22;10732;51.472;6.466;2023-04-07T02:18:10;8.10;99.90
21149;DHT22;10732;51.472;6.466;2023-04-07T02:20:37;8.00;99.90
21149;DHT22;10732;51.472;6.466;2023-04-07T02:23:07;8.00;99.90
21149;DHT22;10732;51.472;6.466;2023-04-07T02:25:32;8.00;99.90
21149;DHT22;10732;51.472;6.466;2023-04-07T02:27:59;8.10;99.90
21149;DHT22;10732;51.472;6.466;2023-04-07T02:30:26;8.00;99.90
21149;DHT22;10732;51.472;6.466;2023-04-07T02:32:52;8.00;99.90
21149;DHT22;10732;51.472;6.466;2023-04-07T02:35:18;8.00;99.90
21149;DHT22;10732;51.472;6.466;2023-04-07T02:37:45;8.00;99.90
21149;DHT22;10732;51.472;6.466;2023-04-07T02:40:11;8.00;99.90
21149;DHT22;10732;51.472;6.466;2023-04-07T02:42:37;8.00;99.90
21149;DHT22;10732;51.472;6.466;2023-04-07T02:45:04;8.00;99.90
21149;DHT22;10732;51.472;6.466;2023-04-07T02:47:30;8.00;99.90
21149;DHT22;10732;51.472;6.466;2023-04-07T02:49:56;8.00;99.90
21149;DHT22;10732;51.472;6.466;2023-04-07T02:52:21;8.00;99.90
21149;DHT22;10732;51.472;6.466;2023-04-07T02:54:47;8.00;99.90
21149;DHT22;10732;51.472;6.466;2023-04-07T02:57:13;8.00;99.90
21149;DHT22;10732;51.472;6.466;2023-04-07T02:59:38;8.00;99.90
21149;DHT22;10732;51.472;6.466;2023-04-07T03:02:04;8.00;99.90
21149;DHT22;10732;51.472;6.466;2023-04-07T03:04:30;8.00;99.90
21149;DHT22;10732;51.472;6.466;2023-04-07T03:06:56;8.00;99.90
21149;DHT22;10732;51.472;6.466;2023-04-07T03:09:21;7.90;99.90
21149;DHT22;10732;51.472;6.466;2023-04-07T03:11:47;7.90;99.90
21149;DHT22;10732;51.472;6.466;2023-04-07T03:14:13;8.00;99.90
21149;DHT22;10732;51.472;6.466;2023-04-07T03:16:38;8.00;99.90
21149;DHT22;10732;51.472;6.466;2023-04-07T03:19:04;8.00;99.90
21149;DHT22;10732;51.472;6.466;2023-04-07T03:21:30;8.00;99.90
21149;DHT22;10732;51.472;6.466;2023-04-07T03:23:56;8.00;99.90
21149;DHT22;10732;51.472;6.466;2023-04-07T03:26:22;7.90;99.90
21149;DHT22;10732;51.472;6.466;2023-04-07T03:28:48;7.90;99.90
21149;DHT22;10732;51.472;6.466;2023-04-07T03:31:13;8.00;99.90
21149;DHT22;10732;51.472;6.466;2023-04-07T03:33:39;8.00;99.90
21149;DHT22;10732;51.472;6.466;2023-04-07T03:36:05;7.90;99.90
21149;DHT22;10732;51.472;6.466;2023-04-07T03:38:30;7.90;99.90
21149;DHT22;10732;51.472;6.466;2023-04-07T03:40:56;7.90;99.90
21149;DHT22;10732;51.472;6.466;2023-04-07T03:43:22;8.00;99.90
21149;DHT22;10732;51.472;6.466;2023-04-07T03:45:47;7.90;99.90
21149;DHT22;10732;51.472;6.466;2023-04-07T03:48:13;7.90;99.90
21149;DHT22;10732;51.472;6.466;2023-04-07T03:50:39;7.90;99.90
21149;DHT22;10732;51.472;6.466;2023-04-07T03:53:05;7.90;99.90
21149;DHT22;10732;51.472;6.466;2023-04-07T03:55:32;7.90;99.90
21149;DHT22;10732;51.472;6.466;2023-04-07T03:57:59;7.80;99.90
21149;DHT22;10732;51.472;6.466;2023-04-07T04:00:24;7.80;99.90
21149;DHT22;10732;51.472;6.466;2023-04-07T04:02:51;7.80;99.90
21149;DHT22;10732;51.472;6.466;2023-04-07T04:05:17;7.80;99.90
21149;DHT22;10732;51.472;6.466;2023-04-07T04:07:43;7.80;99.90
21149;DHT22;10732;51.472;6.466;2023-04-07T04:10:09;7.80;99.90
21149;DHT22;10732;51.472;6.466;2023-04-07T04:12:35;7.80;99.90
21149;DHT22;10732;51.472;6.466;2023-04-07T04:15:00;7.80;99.90
21149;DHT22;10732;51.472;6.466;2023-04-07T04:17:26;7.80;99.90
21149;DHT22;10732;51.472;6.466;2023-04-07T04:19:52;7.70;99.90
21149;DHT22;10732;51.472;6.466;2023-04-07T04:22:18;7.70;99.90
21149;DHT22;10732;51.472;6.466;2023-04-07T04:24:44;7.70;99.90
21149;DHT22;10732;51.472;6.466;2023-04-07T04:27:09;7.70;99.90
21149;DHT22;10732;51.472;6.466;2023-04-07T04:29:35;7.60;99.90
21149;DHT22;10732;51.472;6.466;2023-04-07T04:32:01;7.60;99.90
21149;DHT22;10732;51.472;6.466;2023-04-07T04:34:26;7.70;99.90
21149;DHT22;10732;51.472;6.466;2023-04-07T04:36:52;7.60;99.90
21149;DHT22;10732;51.472;6.466;2023-04-07T04:39:17;7.70;99.90
21149;DHT22;10732;51.472;6.466;2023-04-07T04:41:44;7.70;99.90
21149;DHT22;10732;51.472;6.466;2023-04-07T04:44:09;7.70;99.90
21149;DHT22;10732;51.472;6.466;2023-04-07T04:46:35;7.70;99.90
21149;DHT22;10732;51.472;6.466;2023-04-07T04:49:01;7.70;99.90
21149;DHT22;10732;51.472;6.466;2023-04-07T04:51:26;7.60;99.90
21149;DHT22;10732;51.472;6.466;2023-04-07T04:53:52;7.60;99.90
21149;DHT22;10732;51.472;6.466;2023-04-07T04:56:18;7.60;99.90
21149;DHT22;10732;51.472;6.466;2023-04-07T04:58:43;7.60;99.90
21149;DHT22;10732;51.472;6.466;2023-04-07T05:01:12;7.60;99.90
21149;DHT22;10732;51.472;6.466;2023-04-07T05:03:38;7.60;99.90
21149;DHT22;10732;51.472;6.466;2023-04-07T05:06:03;7.60;99.90
21149;DHT22;10732;51.472;6.466;2023-04-07T05:08:29;7.60;99.90
21149;DHT22;10732;51.472;6.466;2023-04-07T05:10:55;7.60;99.90
21149;DHT22;10732;51.472;6.466;2023-04-07T05:13:20;7.70;99.90
21149;DHT22;10732;51.472;6.466;2023-04-07T05:15:46;7.60;99.90
21149;DHT22;10732;51.472;6.466;2023-04-07T05:18:12;7.60;99.90
21149;DHT22;10732;51.472;6.466;2023-04-07T05:20:37;7.60;99.90
21149;DHT22;10732;51.472;6.466;2023-04-07T05:23:03;7.60;99.90
21149;DHT22;10732;51.472;6.466;2023-04-07T05:25:29;7.60;99.90
21149;DHT22;10732;51.472;6.466;2023-04-07T05:27:54;7.60;99.90
21149;DHT22;10732;51.472;6.466;2023-04-07T05:30:20;7.60;99.90
21149;DHT22;10732;51.472;6.466;2023-04-07T05:32:46;7.60;99.90
21149;DHT22;10732;51.472;6.466;2023-04-07T05:35:11;7.60;99.90
21149;DHT22;10732;51.472;6.466;2023-04-07T05:37:37;7.70;99.90
21149;DHT22;10732;51.472;6.466;2023-04-07T05:40:03;7.70;99.90
21149;DHT22;10732;51.472;6.466;2023-04-07T05:42:28;7.70;99.90
21149;DHT22;10732;51.472;6.466;2023-04-07T05:44:54;7.60;99.90
21149;DHT22;10732;51.472;6.466;2023-04-07T05:47:20;7.60;99.90
21149;DHT22;10732;51.472;6.466;2023-04-07T05:49:46;7.70;99.90
21149;DHT22;10732;51.472;6.466;2023-04-07T05:52:14;7.70;99.90
21149;DHT22;10732;51.472;6.466;2023-04-07T05:54:40;7.60;99.90
21149;DHT22;10732;51.472;6.466;2023-04-07T05:57:06;7.60;99.90
21149;DHT22;10732;51.472;6.466;2023-04-07T05:59:32;7.70;99.90
21149;DHT22;10732;51.472;6.466;2023-04-07T06:01:58;7.70;99.90
21149;DHT22;10732;51.472;6.466;2023-04-07T06:04:24;7.80;99.90
21149;DHT22;10732;51.472;6.466;2023-04-07T06:06:50;7.80;99.90
21149;DHT22;10732;51.472;6.466;2023-04-07T06:09:17;7.90;99.90
21149;DHT22;10732;51.472;6.466;2023-04-07T06:11:42;7.90;99.90
21149;DHT22;10732;51.472;6.466;2023-04-07T06:14:08;7.90;99.90
21149;DHT22;10732;51.472;6.466;2023-04-07T06:16:34;8.00;99.90
21149;DHT22;10732;51.472;6.466;2023-04-07T06:19:00;8.00;99.90
21149;DHT22;10732;51.472;6.466;2023-04-07T06:21:25;8.00;99.90
21149;DHT22;10732;51.472;6.466;2023-04-07T06:23:51;8.00;99.90
21149;DHT22;10732;51.472;6.466;2023-04-07T06:26:17;8.00;99.90
21149;DHT22;10732;51.472;6.466;2023-04-07T06:28:42;8.00;99.90
21149;DHT22;10732;51.472;6.466;2023-04-07T06:31:08;8.10;99.90
21149;DHT22;10732;51.472;6.466;2023-04-07T06:33:34;8.10;99.90
21149;DHT22;10732;51.472;6.466;2023-04-07T06:35:59;8.10;99.90
21149;DHT22;10732;51.472;6.466;2023-04-07T06:38:25;8.10;99.90
21149;DHT22;10732;51.472;6.466;2023-04-07T06:40:51;8.10;99.90
21149;DHT22;10732;51.472;6.466;2023-04-07T06:43:16;8.20;99.90
21149;DHT22;10732;51.472;6.466;2023-04-07T06:45:42;8.20;99.90
21149;DHT22;10732;51.472;6.466;2023-04-07T06:48:07;8.20;99.90
21149;DHT22;10732;51.472;6.466;2023-04-07T06:50:35;8.20;99.90
21149;DHT22;10732;51.472;6.466;2023-04-07T06:53:01;8.10;99.90
21149;DHT22;10732;51.472;6.466;2023-04-07T06:55:27;8.20;99.90
21149;DHT22;10732;51.472;6.466;2023-04-07T06:57:52;8.20;99.90
21149;DHT22;10732;51.472;6.466;2023-04-07T07:00:18;8.20;99.90
21149;DHT22;10732;51.472;6.466;2023-04-07T07:02:44;8.20;99.90
21149;DHT22;10732;51.472;6.466;2023-04-07T07:05:09;8.20;99.90
21149;DHT22;10732;51.472;6.466;2023-04-07T07:07:36;8.30;99.90
21149;DHT22;10732;51.472;6.466;2023-04-07T07:10:02;8.30;99.90
21149;DHT22;10732;51.472;6.466;2023-04-07T07:12:27;8.30;99.90
21149;DHT22;10732;51.472;6.466;2023-04-07T07:14:53;8.40;99.90
21149;DHT22;10732;51.472;6.466;2023-04-07T07:17:19;8.40;99.90
21149;DHT22;10732;51.472;6.466;2023-04-07T07:19:44;8.40;99.90
21149;DHT22;10732;51.472;6.466;2023-04-07T07:22:10;8.40;99.90
21149;DHT22;10732;51.472;6.466;2023-04-07T07:24:35;8.40;99.90
21149;DHT22;10732;51.472;6.466;2023-04-07T07:27:01;8.40;99.90
21149;DHT22;10732;51.472;6.466;2023-04-07T07:29:27;8.30;99.90
21149;DHT22;10732;51.472;6.466;2023-04-07T07:31:53;8.40;99.90
21149;DHT22;10732;51.472;6.466;2023-04-07T07:34:19;8.50;99.90
21149;DHT22;10732;51.472;6.466;2023-04-07T07:36:44;8.50;99.90
21149;DHT22;10732;51.472;6.466;2023-04-07T07:39:10;8.50;99.90
21149;DHT22;10732;51.472;6.466;2023-04-07T07:41:35;8.50;99.90
21149;DHT22;10732;51.472;6.466;2023-04-07T07:44:01;8.60;99.90
21149;DHT22;10732;51.472;6.466;2023-04-07T07:46:27;8.60;99.90
21149;DHT22;10732;51.472;6.466;2023-04-07T07:48:52;8.60;99.90
21149;DHT22;10732;51.472;6.466;2023-04-07T07:51:18;8.70;99.90
21149;DHT22;10732;51.472;6.466;2023-04-07T07:53:44;8.60;99.90
21149;DHT22;10732;51.472;6.466;2023-04-07T07:56:10;8.70;99.90
21149;DHT22;10732;51.472;6.466;2023-04-07T07:58:36;8.80;99.90
21149;DHT22;10732;51.472;6.466;2023-04-07T08:01:02;8.90;99.90
21149;DHT22;10732;51.472;6.466;2023-04-07T08:03:27;9.00;99.90
21149;DHT22;10732;51.472;6.466;2023-04-07T08:05:53;9.00;99.90
21149;DHT22;10732;51.472;6.466;2023-04-07T08:08:18;9.30;99.90
21149;DHT22;10732;51.472;6.466;2023-04-07T08:10:44;9.20;99.90
21149;DHT22;10732;51.472;6.466;2023-04-07T08:13:10;9.30;99.90
21149;DHT22;10732;51.472;6.466;2023-04-07T08:15:35;9.30;99.90
21149;DHT22;10732;51.472;6.466;2023-04-07T08:18:01;9.30;99.90
21149;DHT22;10732;51.472;6.466;2023-04-07T08:20:29;9.50;99.90
21149;DHT22;10732;51.472;6.466;2023-04-07T08:22:56;9.60;99.90
21149;DHT22;10732;51.472;6.466;2023-04-07T08:25:21;9.60;99.90
21149;DHT22;10732;51.472;6.466;2023-04-07T08:27:47;9.40;99.90
21149;DHT22;10732;51.472;6.466;2023-04-07T08:30:13;9.40;99.90
21149;DHT22;10732;51.472;6.466;2023-04-07T08:32:42;9.40;99.90
21149;DHT22;10732;51.472;6.466;2023-04-07T08:35:08;9.40;99.90
21149;DHT22;10732;51.472;6.466;2023-04-07T08:37:34;9.40;99.90
21149;DHT22;10732;51.472;6.466;2023-04-07T08:40:01;9.60;99.90
21149;DHT22;10732;51.472;6.466;2023-04-07T08:42:29;9.70;99.90
21149;DHT22;10732;51.472;6.466;2023-04-07T08:44:57;9.90;99.90
21149;DHT22;10732;51.472;6.466;2023-04-07T08:47:26;9.80;99.90
21149;DHT22;10732;51.472;6.466;2023-04-07T08:49:53;9.60;99.90
21149;DHT22;10732;51.472;6.466;2023-04-07T08:52:31;9.60;99.90
21149;DHT22;10732;51.472;6.466;2023-04-07T08:54:57;9.40;99.90
21149;DHT22;10732;51.472;6.466;2023-04-07T08:57:29;9.40;99.90
21149;DHT22;10732;51.472;6.466;2023-04-07T08:59:55;9.40;99.90
21149;DHT22;10732;51.472;6.466;2023-04-07T09:02:22;9.60;99.90
21149;DHT22;10732;51.472;6.466;2023-04-07T09:04:48;9.60;99.90
21149;DHT22;10732;51.472;6.466;2023-04-07T09:07:13;9.50;99.90
21149;DHT22;10732;51.472;6.466;2023-04-07T09:09:39;9.60;99.90
21149;DHT22;10732;51.472;6.466;2023-04-07T09:12:05;9.70;99.90
21149;DHT22;10732;51.472;6.466;2023-04-07T09:14:30;9.60;99.90
21149;DHT22;10732;51.472;6.466;2023-04-07T09:16:56;9.60;99.90
21149;DHT22;10732;51.472;6.466;2023-04-07T09:19:26;9.60;99.90
21149;DHT22;10732;51.472;6.466;2023-04-07T09:21:52;9.60;99.90
21149;DHT22;10732;51.472;6.466;2023-04-07T09:24:26;9.60;99.90
21149;DHT22;10732;51.472;6.466;2023-04-07T09:27:11;9.60;99.90
21149;DHT22;10732;51.472;6.466;2023-04-07T09:29:39;9.60;99.90
21149;DHT22;10732;51.472;6.466;2023-04-07T09:32:05;9.50;99.90
21149;DHT22;10732;51.472;6.466;2023-04-07T09:34:33;9.60;99.90
21149;DHT22;10732;51.472;6.466;2023-04-07T09:37:00;9.70;99.90
21149;DHT22;10732;51.472;6.466;2023-04-07T09:39:25;9.60;99.90
21149;DHT22;10732;51.472;6.466;2023-04-07T09:41:51;9.50;99.90
21149;DHT22;10732;51.472;6.466;2023-04-07T09:44:18;9.50;99.90
21149;DHT22;10732;51.472;6.466;2023-04-07T09:49:16;9.30;99.90
21149;DHT22;10732;51.472;6.466;2023-04-07T09:52:11;9.30;99.90
21149;DHT22;10732;51.472;6.466;2023-04-07T09:54:38;9.30;99.90
21149;DHT22;10732;51.472;6.466;2023-04-07T09:57:07;9.30;99.90
21149;DHT22;10732;51.472;6.466;2023-04-07T09:59:33;9.30;99.90
21149;DHT22;10732;51.472;6.466;2023-04-07T10:01:59;9.30;99.90
21149;DHT22;10732;51.472;6.466;2023-04-07T10:04:26;9.30;99.90
21149;DHT22;10732;51.472;6.466;2023-04-07T10:06:52;9.30;99.90
21149;DHT22;10732;51.472;6.466;2023-04-07T10:09:19;9.20;99.90
21149;DHT22;10732;51.472;6.466;2023-04-07T10:11:45;9.20;99.90
21149;DHT22;10732;51.472;6.466;2023-04-07T10:14:11;9.10;99.90
21149;DHT22;10732;51.472;6.466;2023-04-07T10:16:37;9.10;99.90
21149;DHT22;10732;51.472;6.466;2023-04-07T10:19:05;9.10;99.90
21149;DHT22;10732;51.472;6.466;2023-04-07T10:21:34;9.20;99.90
21149;DHT22;10732;51.472;6.466;2023-04-07T10:24:34;9.20;99.90
21149;DHT22;10732;51.472;6.466;2023-04-07T10:27:04;9.20;99.90
21149;DHT22;10732;51.472;6.466;2023-04-07T10:29:36;9.20;99.90
21149;DHT22;10732;51.472;6.466;2023-04-07T10:32:02;9.40;99.90
21149;DHT22;10732;51.472;6.466;2023-04-07T10:37:13;9.20;99.90
21149;DHT22;10732;51.472;6.466;2023-04-07T10:39:39;9.20;99.90
21149;DHT22;10732;51.472;6.466;2023-04-07T10:42:05;9.30;99.90
21149;DHT22;10732;51.472;6.466;2023-04-07T10:47:04;9.30;99.90
21149;DHT22;10732;51.472;6.466;2023-04-07T10:49:32;9.40;99.90
21149;DHT22;10732;51.472;6.466;2023-04-07T10:54:37;9.50;99.90
21149;DHT22;10732;51.472;6.466;2023-04-07T10:59:33;9.70;99.90
21149;DHT22;10732;51.472;6.466;2023-04-07T11:04:41;10.10;99.90
21149;DHT22;10732;51.472;6.466;2023-04-07T11:07:08;10.20;99.90
21149;DHT22;10732;51.472;6.466;2023-04-07T11:09:33;9.90;99.90
21149;DHT22;10732;51.472;6.466;2023-04-07T11:11:59;9.70;99.90
21149;DHT22;10732;51.472;6.466;2023-04-07T11:14:32;9.70;99.90
21149;DHT22;10732;51.472;6.466;2023-04-07T11:16:59;9.70;99.90
21149;DHT22;10732;51.472;6.466;2023-04-07T11:19:27;9.80;99.90
21149;DHT22;10732;51.472;6.466;2023-04-07T11:22:12;9.80;99.90
21149;DHT22;10732;51.472;6.466;2023-04-07T11:24:38;9.90;99.90
21149;DHT22;10732;51.472;6.466;2023-04-07T11:27:04;9.90;99.90
21149;DHT22;10732;51.472;6.466;2023-04-07T11:29:31;10.00;99.90
21149;DHT22;10732;51.472;6.466;2023-04-07T11:31:58;9.90;99.90
21149;DHT22;10732;51.472;6.466;2023-04-07T11:34:34;10.10;99.90
21149;DHT22;10732;51.472;6.466;2023-04-07T11:39:43;10.40;99.90
21149;DHT22;10732;51.472;6.466;2023-04-07T11:42:12;10.40;99.90
21149;DHT22;10732;51.472;6.466;2023-04-07T11:44:46;10.50;99.90
21149;DHT22;10732;51.472;6.466;2023-04-07T11:47:12;10.60;99.90
21149;DHT22;10732;51.472;6.466;2023-04-07T11:49:44;10.70;99.90
21149;DHT22;10732;51.472;6.466;2023-04-07T11:52:10;10.80;99.90
21149;DHT22;10732;51.472;6.466;2023-04-07T11:54:44;10.50;99.90
21149;DHT22;10732;51.472;6.466;2023-04-07T11:57:25;10.40;99.90
21149;DHT22;10732;51.472;6.466;2023-04-07T12:00:08;10.30;99.90
21149;DHT22;10732;51.472;6.466;2023-04-07T12:02:34;10.40;99.90
21149;DHT22;10732;51.472;6.466;2023-04-07T12:05:00;10.50;99.90
21149;DHT22;10732;51.472;6.466;2023-04-07T12:07:25;10.50;99.90
21149;DHT22;10732;51.472;6.466;2023-04-07T12:09:53;10.30;99.90
21149;DHT22;10732;51.472;6.466;2023-04-07T12:12:26;10.30;99.90
21149;DHT22;10732;51.472;6.466;2023-04-07T12:14:52;10.20;99.90
21149;DHT22;10732;51.472;6.466;2023-04-07T12:17:25;10.30;99.90
21149;DHT22;10732;51.472;6.466;2023-04-07T12:19:51;10.40;99.90
21149;DHT22;10732;51.472;6.466;2023-04-07T12:22:18;10.50;99.90
21149;DHT22;10732;51.472;6.466;2023-04-07T12:24:44;10.50;99.90
21149;DHT22;10732;51.472;6.466;2023-04-07T12:27:09;10.40;99.90
21149;DHT22;10732;51.472;6.466;2023-04-07T12:29:35;10.50;99.90
21149;DHT22;10732;51.472;6.466;2023-04-07T12:32:02;10.40;99.90
21149;DHT22;10732;51.472;6.466;2023-04-07T12:34:28;10.30;99.90
21149;DHT22;10732;51.472;6.466;2023-04-07T12:36:53;10.10;99.90
21149;DHT22;10732;51.472;6.466;2023-04-07T12:39:20;10.00;99.90
21149;DHT22;10732;51.472;6.466;2023-04-07T12:41:45;9.90;99.90
21149;DHT22;10732;51.472;6.466;2023-04-07T12:44:12;9.90;99.90
21149;DHT22;10732;51.472;6.466;2023-04-07T12:46:38;9.80;99.90
21149;DHT22;10732;51.472;6.466;2023-04-07T12:49:04;10.00;99.90
21149;DHT22;10732;51.472;6.466;2023-04-07T12:51:30;10.10;99.90
21149;DHT22;10732;51.472;6.466;2023-04-07T12:53:58;10.00;99.90
21149;DHT22;10732;51.472;6.466;2023-04-07T12:56:25;10.10;99.90
21149;DHT22;10732;51.472;6.466;2023-04-07T12:58:50;10.10;99.90
21149;DHT22;10732;51.472;6.466;2023-04-07T13:01:17;10.10;99.90
21149;DHT22;10732;51.472;6.466;2023-04-07T13:03:43;10.20;99.90
21149;DHT22;10732;51.472;6.466;2023-04-07T13:06:09;10.20;99.90
21149;DHT22;10732;51.472;6.466;2023-04-07T13:08:35;10.10;99.90
21149;DHT22;10732;51.472;6.466;2023-04-07T13:11:00;10.10;99.90
21149;DHT22;10732;51.472;6.466;2023-04-07T13:13:26;9.90;99.90
21149;DHT22;10732;51.472;6.466;2023-04-07T13:15:52;9.90;99.90
21149;DHT22;10732;51.472;6.466;2023-04-07T13:18:17;9.80;99.90
21149;DHT22;10732;51.472;6.466;2023-04-07T13:20:43;9.70;99.90
21149;DHT22;10732;51.472;6.466;2023-04-07T13:23:09;9.70;99.90
21149;DHT22;10732;51.472;6.466;2023-04-07T13:25:34;9.70;99.90
21149;DHT22;10732;51.472;6.466;2023-04-07T13:28:00;9.60;99.90
21149;DHT22;10732;51.472;6.466;2023-04-07T13:30:25;9.80;99.90
21149;DHT22;10732;51.472;6.466;2023-04-07T13:32:51;9.80;99.90
21149;DHT22;10732;51.472;6.466;2023-04-07T13:35:17;9.90;99.90
21149;DHT22;10732;51.472;6.466;2023-04-07T13:37:43;9.80;99.90
21149;DHT22;10732;51.472;6.466;2023-04-07T13:40:10;9.80;99.90
21149;DHT22;10732;51.472;6.466;2023-04-07T13:42:37;9.90;99.90
21149;DHT22;10732;51.472;6.466;2023-04-07T13:45:03;9.80;99.90
21149;DHT22;10732;51.472;6.466;2023-04-07T13:47:29;9.90;99.90
21149;DHT22;10732;51.472;6.466;2023-04-07T13:50:01;10.10;99.90
21149;DHT22;10732;51.472;6.466;2023-04-07T13:52:27;10.00;99.90
21149;DHT22;10732;51.472;6.466;2023-04-07T13:54:53;10.00;99.90
21149;DHT22;10732;51.472;6.466;2023-04-07T13:57:19;10.00;99.90
21149;DHT22;10732;51.472;6.466;2023-04-07T13:59:46;10.00;99.90
21149;DHT22;10732;51.472;6.466;2023-04-07T14:02:12;10.00;99.90
21149;DHT22;10732;51.472;6.466;2023-04-07T14:04:38;10.00;99.90
21149;DHT22;10732;51.472;6.466;2023-04-07T14:07:04;10.00;99.90
21149;DHT22;10732;51.472;6.466;2023-04-07T14:09:30;10.10;99.90
21149;DHT22;10732;51.472;6.466;2023-04-07T14:11:55;10.00;99.90
21149;DHT22;10732;51.472;6.466;2023-04-07T14:14:21;10.10;99.90
21149;DHT22;10732;51.472;6.466;2023-04-07T14:16:47;10.10;99.90
21149;DHT22;10732;51.472;6.466;2023-04-07T14:19:16;10.20;99.90
21149;DHT22;10732;51.472;6.466;2023-04-07T14:21:41;10.30;99.90
21149;DHT22;10732;51.472;6.466;2023-04-07T14:24:07;10.30;99.90
21149;DHT22;10732;51.472;6.466;2023-04-07T14:26:32;10.40;99.90
21149;DHT22;10732;51.472;6.466;2023-04-07T14:28:58;10.30;99.90
21149;DHT22;10732;51.472;6.466;2023-04-07T14:31:23;10.50;99.90
21149;DHT22;10732;51.472;6.466;2023-04-07T14:33:49;10.60;99.90
21149;DHT22;10732;51.472;6.466;2023-04-07T14:36:15;10.60;99.90
21149;DHT22;10732;51.472;6.466;2023-04-07T14:38:43;10.70;99.90
21149;DHT22;10732;51.472;6.466;2023-04-07T14:41:09;10.60;99.90
21149;DHT22;10732;51.472;6.466;2023-04-07T14:43:34;10.70;99.90
21149;DHT22;10732;51.472;6.466;2023-04-07T14:46:00;10.60;99.90
21149;DHT22;10732;51.472;6.466;2023-04-07T14:48:26;10.70;99.90
21149;DHT22;10732;51.472;6.466;2023-04-07T14:50:52;10.80;99.90
21149;DHT22;10732;51.472;6.466;2023-04-07T14:53:18;10.80;99.90
21149;DHT22;10732;51.472;6.466;2023-04-07T14:55:43;10.80;99.90
21149;DHT22;10732;51.472;6.466;2023-04-07T14:58:09;10.80;99.90
21149;DHT22;10732;51.472;6.466;2023-04-07T15:00:34;10.80;99.90
21149;DHT22;10732;51.472;6.466;2023-04-07T15:03:00;10.80;99.90
21149;DHT22;10732;51.472;6.466;2023-04-07T15:05:25;10.80;99.90
21149;DHT22;10732;51.472;6.466;2023-04-07T15:07:52;10.80;99.90
21149;DHT22;10732;51.472;6.466;2023-04-07T15:10:18;10.70;99.90
21149;DHT22;10732;51.472;6.466;2023-04-07T15:12:44;10.60;99.90
21149;DHT22;10732;51.472;6.466;2023-04-07T15:15:16;10.70;99.90
21149;DHT22;10732;51.472;6.466;2023-04-07T15:17:42;10.80;99.90
21149;DHT22;10732;51.472;6.466;2023-04-07T15:20:08;10.80;99.90
21149;DHT22;10732;51.472;6.466;2023-04-07T15:22:34;10.90;99.90
21149;DHT22;10732;51.472;6.466;2023-04-07T15:25:00;10.90;99.90
21149;DHT22;10732;51.472;6.466;2023-04-07T15:27:27;10.90;99.90
21149;DHT22;10732;51.472;6.466;2023-04-07T15:29:53;11.00;99.90
21149;DHT22;10732;51.472;6.466;2023-04-07T15:32:18;11.10;99.90
21149;DHT22;10732;51.472;6.466;2023-04-07T15:34:44;11.10;99.90
21149;DHT22;10732;51.472;6.466;2023-04-07T15:37:11;11.10;99.90
21149;DHT22;10732;51.472;6.466;2023-04-07T15:39:38;11.10;99.90
21149;DHT22;10732;51.472;6.466;2023-04-07T15:42:04;11.00;99.90
21149;DHT22;10732;51.472;6.466;2023-04-07T15:44:32;11.00;99.90
21149;DHT22;10732;51.472;6.466;2023-04-07T15:47:06;10.90;99.90
21149;DHT22;10732;51.472;6.466;2023-04-07T15:49:32;10.80;99.90
21149;DHT22;10732;51.472;6.466;2023-04-07T15:51:59;10.70;99.90
21149;DHT22;10732;51.472;6.466;2023-04-07T15:54:25;10.80;99.90
21149;DHT22;10732;51.472;6.466;2023-04-07T15:56:51;10.90;99.90
21149;DHT22;10732;51.472;6.466;2023-04-07T15:59:17;11.00;99.90
21149;DHT22;10732;51.472;6.466;2023-04-07T16:01:43;11.00;99.90